CFG12 LSZH-EDDF
Flight info
| Callsign | CFG12 |
|---|---|
| Flight time | N/A |
| Altitude | 19000 |
| Route | DEGES Z1 SUDEN T164 KOVAN T163 SPESA SPESA4C |
| Aircraft | A320/M-SDE3FGHIRWY/LB1 |
Departure
| Time | 2026-05-01 11:49 |
|---|---|
| Airport | Zürich Airport (LSZH) |
Arrival
| Time | N/A |
|---|---|
| Airport | Frankfurt Main Airport (EDDF) |
| Time | Latitude | Longitude | Altitude | Speed | Heading |
|---|---|---|---|---|---|
| 2026-05-01 11:21 | 47.45347 | 8.55754 | 1407 ft | 0 kts | 6° |
| 2026-05-01 11:40 | 47.45324 | 8.55751 | 1405 ft | 4 kts | 2° |
| 2026-05-01 11:40 | 47.45297 | 8.55752 | 1403 ft | 4 kts | 351° |
| 2026-05-01 11:40 | 47.45272 | 8.55763 | 1399 ft | 4 kts | 322° |
| 2026-05-01 11:41 | 47.45262 | 8.55783 | 1401 ft | 1 kts | 276° |
| 2026-05-01 11:41 | 47.45261 | 8.55789 | 1397 ft | 0 kts | 276° |
| 2026-05-01 11:44 | 47.45263 | 8.55771 | 1401 ft | 9 kts | 276° |
| 2026-05-01 11:44 | 47.45271 | 8.55647 | 1397 ft | 12 kts | 275° |
| 2026-05-01 11:44 | 47.45304 | 8.55558 | 1405 ft | 10 kts | 334° |
| 2026-05-01 11:45 | 47.45388 | 8.55499 | 1400 ft | 14 kts | 335° |
| 2026-05-01 11:45 | 47.45484 | 8.55434 | 1397 ft | 16 kts | 335° |
| 2026-05-01 11:45 | 47.45591 | 8.55361 | 1404 ft | 18 kts | 333° |
| 2026-05-01 11:45 | 47.45670 | 8.55421 | 1397 ft | 17 kts | 95° |
| 2026-05-01 11:46 | 47.45655 | 8.55626 | 1397 ft | 24 kts | 95° |
| 2026-05-01 11:46 | 47.45641 | 8.55872 | 1402 ft | 24 kts | 95° |
| 2026-05-01 11:46 | 47.45620 | 8.56122 | 1397 ft | 25 kts | 96° |
| 2026-05-01 11:46 | 47.45601 | 8.56379 | 1400 ft | 25 kts | 95° |
| 2026-05-01 11:47 | 47.45583 | 8.56642 | 1400 ft | 26 kts | 97° |
| 2026-05-01 11:47 | 47.45563 | 8.56908 | 1397 ft | 26 kts | 96° |
| 2026-05-01 11:47 | 47.45577 | 8.56998 | 1406 ft | 0 kts | 40° |
| 2026-05-01 11:48 | 47.45601 | 8.57019 | 1401 ft | 16 kts | 21° |
| 2026-05-01 11:48 | 47.45667 | 8.56935 | 1399 ft | 7 kts | 260° |
| 2026-05-01 11:48 | 47.45677 | 8.56789 | 1405 ft | 41 kts | 276° |
| 2026-05-01 11:49 | 47.45735 | 8.55982 | 1406 ft | 112 kts | 276° |
| 2026-05-01 11:49 | 47.45840 | 8.54574 | 1409 ft | 161 kts | 279° |
| 2026-05-01 11:49 | 47.45994 | 8.52861 | 1848 ft | 170 kts | 281° |
| 2026-05-01 11:49 | 47.46177 | 8.51110 | 2582 ft | 174 kts | 281° |
| 2026-05-01 11:50 | 47.46332 | 8.49305 | 3072 ft | 185 kts | 276° |
| 2026-05-01 11:50 | 47.46150 | 8.47336 | 3363 ft | 208 kts | 242° |
| 2026-05-01 11:50 | 47.45092 | 8.45758 | 3765 ft | 226 kts | 216° |
| 2026-05-01 11:50 | 47.43981 | 8.44165 | 4672 ft | 224 kts | 238° |
| 2026-05-01 11:51 | 47.43354 | 8.41793 | 5655 ft | 223 kts | 254° |
| 2026-05-01 11:51 | 47.43082 | 8.40536 | 6120 ft | 225 kts | 253° |
| 2026-05-01 11:52 | 47.39486 | 8.36349 | 8560 ft | 235 kts | 160° |
| 2026-05-01 11:52 | 47.38151 | 8.37675 | 9345 ft | 235 kts | 126° |
| 2026-05-01 11:52 | 47.37551 | 8.39891 | 10168 ft | 238 kts | 93° |
| 2026-05-01 11:52 | 47.37920 | 8.42257 | 10879 ft | 243 kts | 58° |
| 2026-05-01 11:53 | 47.39170 | 8.43945 | 11610 ft | 250 kts | 31° |
| 2026-05-01 11:53 | 47.40681 | 8.45227 | 12364 ft | 251 kts | 37° |
| 2026-05-01 11:53 | 47.41993 | 8.47003 | 12977 ft | 260 kts | 54° |
| 2026-05-01 11:53 | 47.43108 | 8.49203 | 13240 ft | 282 kts | 56° |
| 2026-05-01 11:54 | 47.44314 | 8.51655 | 13488 ft | 306 kts | 56° |
| 2026-05-01 11:54 | 47.45402 | 8.54509 | 13701 ft | 327 kts | 71° |
| 2026-05-01 11:54 | 47.45859 | 8.57891 | 13867 ft | 348 kts | 87° |
| 2026-05-01 11:54 | 47.45991 | 8.61572 | 14079 ft | 367 kts | 88° |
| 2026-05-01 11:55 | 47.46117 | 8.65377 | 14586 ft | 374 kts | 88° |
| 2026-05-01 11:55 | 47.46246 | 8.69240 | 15189 ft | 379 kts | 88° |
| 2026-05-01 11:55 | 47.46383 | 8.73147 | 15802 ft | 382 kts | 87° |
| 2026-05-01 11:55 | 47.46526 | 8.77089 | 16410 ft | 386 kts | 87° |
| 2026-05-01 11:56 | 47.46625 | 8.81074 | 17044 ft | 390 kts | 91° |
| 2026-05-01 11:56 | 47.46328 | 8.85067 | 17663 ft | 393 kts | 101° |
| 2026-05-01 11:56 | 47.45756 | 8.89042 | 18276 ft | 397 kts | 101° |
| 2026-05-01 11:56 | 47.45170 | 8.93046 | 18852 ft | 401 kts | 101° |
| 2026-05-01 11:57 | 47.44581 | 8.97093 | 19209 ft | 404 kts | 101° |
| 2026-05-01 11:57 | 47.43987 | 9.01220 | 19315 ft | 410 kts | 101° |
| 2026-05-01 11:57 | 47.43386 | 9.05412 | 19331 ft | 425 kts | 101° |
| 2026-05-01 11:57 | 47.42764 | 9.09744 | 19329 ft | 435 kts | 101° |
| 2026-05-01 11:58 | 47.42222 | 9.14146 | 19324 ft | 437 kts | 95° |
| 2026-05-01 11:58 | 47.42209 | 9.18618 | 19338 ft | 436 kts | 84° |
| 2026-05-01 11:58 | 47.43939 | 9.27111 | 19330 ft | 433 kts | 62° |
| 2026-05-01 11:59 | 47.44416 | 9.28387 | 19334 ft | 433 kts | 60° |
| 2026-05-01 11:59 | 47.49088 | 9.38083 | 19329 ft | 434 kts | 42° |
| 2026-05-01 12:00 | 47.54184 | 9.42822 | 19324 ft | 435 kts | 22° |
| 2026-05-01 12:00 | 47.57057 | 9.44264 | 19324 ft | 436 kts | 16° |
| 2026-05-01 12:00 | 47.63084 | 9.45372 | 19327 ft | 438 kts | 3° |
| 2026-05-01 12:01 | 47.66134 | 9.45531 | 19325 ft | 439 kts | 3° |
| 2026-05-01 12:01 | 47.69186 | 9.45692 | 19322 ft | 439 kts | 3° |
| 2026-05-01 12:01 | 47.72253 | 9.45856 | 19321 ft | 439 kts | 3° |